createdAt,value
2019-03-22T00:00:52.110Z,102877.72
2019-03-22T00:03:17.905Z,102879.28
2019-03-22T00:05:43.687Z,102868.48
2019-03-22T00:08:09.487Z,102874.66
2019-03-22T00:10:35.263Z,102879.69
2019-03-22T00:13:01.064Z,102879.58
2019-03-22T00:15:26.841Z,102879.69
2019-03-22T00:17:52.680Z,102877.29
2019-03-22T00:20:18.468Z,102872.73
2019-03-22T00:22:44.288Z,102871.17
2019-03-22T00:25:10.058Z,102878.34
2019-03-22T00:27:35.833Z,102883.87
2019-03-22T00:30:06.361Z,102886.72
2019-03-22T00:32:32.152Z,102886.98
2019-03-22T00:34:57.940Z,102886.98
2019-03-22T00:37:23.711Z,102885.38
2019-03-22T00:39:49.515Z,102875.07
2019-03-22T00:42:15.294Z,102880.46
2019-03-22T00:44:41.083Z,102879.75
2019-03-22T00:47:06.870Z,102883.31
2019-03-22T00:49:32.651Z,102883.67
2019-03-22T00:51:58.427Z,102886.22
2019-03-22T00:54:24.218Z,102869.53
2019-03-22T00:56:50.008Z,102877.55
2019-03-22T00:59:15.804Z,102878.41
2019-03-22T01:01:41.585Z,102879.44
2019-03-22T01:04:07.381Z,102887.77
2019-03-22T01:06:33.168Z,102889.44
2019-03-22T01:08:59.062Z,102885.40
2019-03-22T01:11:24.840Z,102891.81
2019-03-22T01:13:50.620Z,102895.73
2019-03-22T01:16:16.431Z,102888.75
2019-03-22T01:18:42.213Z,102884.45
2019-03-22T01:21:08.018Z,102883.98
2019-03-22T01:23:33.793Z,102889.37
2019-03-22T01:25:59.584Z,102888.02
2019-03-22T01:28:25.378Z,102900.77
2019-03-22T01:30:51.186Z,102903.35
2019-03-22T01:33:16.971Z,102907.69
2019-03-22T01:35:42.761Z,102906.84
2019-03-22T01:38:08.540Z,102911.29
2019-03-22T01:40:34.335Z,102912.27
2019-03-22T01:43:00.116Z,102908.95
2019-03-22T01:45:25.904Z,102904.41
2019-03-22T01:47:51.690Z,102896.48
2019-03-22T01:50:17.504Z,102900.63
2019-03-22T01:52:43.277Z,102900.16
2019-03-22T01:55:09.174Z,102888.52
2019-03-22T01:57:34.952Z,102900.02
2019-03-22T02:00:00.733Z,102895.72
2019-03-22T02:02:26.527Z,102882.29
2019-03-22T02:04:52.305Z,102881.67
2019-03-22T02:07:18.103Z,102871.73
2019-03-22T02:09:43.893Z,102873.38
2019-03-22T02:12:09.674Z,102876.00
2019-03-22T02:14:35.565Z,102873.99
2019-03-22T02:17:01.378Z,102873.99
2019-03-22T02:19:27.176Z,102879.27
2019-03-22T02:21:52.968Z,102875.05
2019-03-22T02:24:18.749Z,102879.45
2019-03-22T02:26:44.542Z,102872.50
2019-03-22T02:29:10.336Z,102862.90
2019-03-22T02:31:36.185Z,102855.95
2019-03-22T02:34:01.967Z,102872.03
2019-03-22T02:36:27.756Z,102873.70
2019-03-22T02:38:53.541Z,102876.44
2019-03-22T02:41:19.329Z,102867.66
2019-03-22T02:43:45.120Z,102865.70
2019-03-22T02:46:10.915Z,102866.25
2019-03-22T02:48:36.693Z,102865.88
2019-03-22T02:51:02.478Z,102869.34
2019-03-22T02:53:28.269Z,102880.44
2019-03-22T02:55:54.195Z,102877.96
2019-03-22T02:58:21.500Z,102868.50
2019-03-22T03:00:47.439Z,102862.39
2019-03-22T03:03:13.243Z,102858.36
2019-03-22T03:05:39.018Z,102847.69
2019-03-22T03:08:04.810Z,102852.75
2019-03-22T03:10:30.588Z,102849.52
2019-03-22T03:12:56.380Z,102849.03
2019-03-22T03:15:22.176Z,102845.48
2019-03-22T03:17:47.986Z,102845.48
2019-03-22T03:20:17.540Z,102853.19
2019-03-22T03:22:43.338Z,102851.55
2019-03-22T03:25:09.317Z,102857.01
2019-03-22T03:27:35.683Z,102857.27
2019-03-22T03:30:03.487Z,102850.53
2019-03-22T03:32:29.276Z,102844.53
2019-03-22T03:34:55.054Z,102849.80
2019-03-22T03:37:20.833Z,102852.90
2019-03-22T03:39:46.627Z,102849.16
2019-03-22T03:42:12.413Z,102860.64
2019-03-22T03:44:38.200Z,102857.84
2019-03-22T03:47:03.981Z,102878.00
2019-03-22T03:49:29.782Z,102875.63
2019-03-22T03:51:55.573Z,102884.19
2019-03-22T03:54:21.359Z,102886.04
2019-03-22T03:56:47.137Z,102888.88
2019-03-22T03:59:12.929Z,102882.14
2019-03-22T04:01:38.723Z,102878.73
2019-03-22T04:04:04.514Z,102875.48
2019-03-22T04:06:30.302Z,102869.67
2019-03-22T04:08:56.084Z,102874.03
2019-03-22T04:11:21.876Z,102881.84
2019-03-22T04:13:47.686Z,102874.86
2019-03-22T04:16:13.466Z,102874.86
2019-03-22T04:18:39.259Z,102883.05
2019-03-22T04:21:05.049Z,102878.31
2019-03-22T04:23:30.863Z,102879.66
2019-03-22T04:25:56.641Z,102879.16
2019-03-22T04:28:22.421Z,102888.91
2019-03-22T04:30:48.214Z,102894.30
2019-03-22T04:33:13.993Z,102912.30
2019-03-22T04:35:39.789Z,102924.43
2019-03-22T04:38:05.571Z,102930.43
2019-03-22T04:40:31.365Z,102920.88
2019-03-22T04:42:57.141Z,102923.20
2019-03-22T04:45:24.641Z,102924.88
2019-03-22T04:47:57.409Z,102921.09
2019-03-22T04:50:23.610Z,102916.55
2019-03-22T04:52:49.694Z,102923.28
2019-03-22T04:55:16.298Z,102929.53
2019-03-22T04:57:42.084Z,102920.70
2019-03-22T05:00:08.375Z,102917.39
2019-03-22T05:02:34.261Z,102923.50
2019-03-22T05:05:01.184Z,102921.66
2019-03-22T05:07:27.569Z,102925.22
2019-03-22T05:09:53.877Z,102920.45
2019-03-22T05:12:20.161Z,102939.91
2019-03-22T05:14:46.249Z,102939.91
2019-03-22T05:17:12.759Z,102925.25
2019-03-22T05:19:41.564Z,102939.38
2019-03-22T05:22:09.966Z,102931.66
2019-03-22T05:24:36.853Z,102938.20
2019-03-22T05:27:04.044Z,102941.14
2019-03-22T05:29:31.132Z,102956.34
2019-03-22T05:32:05.699Z,102962.22
2019-03-22T05:34:31.581Z,102968.08
2019-03-22T05:36:57.380Z,102959.76
2019-03-22T05:39:23.161Z,102949.83
2019-03-22T05:41:48.948Z,102947.39
2019-03-22T05:44:14.734Z,102933.44
2019-03-22T05:46:40.534Z,102949.24
2019-03-22T05:49:06.309Z,102939.71
2019-03-22T05:51:32.104Z,102938.23
2019-03-22T05:53:57.886Z,102929.53
2019-03-22T05:56:23.680Z,102930.63
2019-03-22T05:58:49.460Z,102944.34
2019-03-22T06:01:15.244Z,102944.81
2019-03-22T06:03:41.045Z,102955.72
2019-03-22T06:06:06.826Z,102949.58
2019-03-22T06:08:32.617Z,102948.13
2019-03-22T06:10:58.405Z,102951.91
2019-03-22T06:13:24.212Z,102955.11
2019-03-22T06:15:49.989Z,102961.47
2019-03-22T06:18:15.785Z,102957.31
2019-03-22T06:20:41.579Z,102955.02
2019-03-22T06:23:07.373Z,102960.92
2019-03-22T06:25:33.163Z,102949.91
2019-03-22T06:27:58.965Z,102949.91
2019-03-22T06:30:24.747Z,102959.17
2019-03-22T06:32:50.547Z,102950.81
2019-03-22T06:35:16.329Z,102948.85
2019-03-22T06:37:42.117Z,102943.83
2019-03-22T06:40:07.911Z,102942.13
2019-03-22T06:42:33.704Z,102941.06
2019-03-22T06:44:59.481Z,102944.08
2019-03-22T06:47:25.330Z,102951.54
2019-03-22T06:49:51.484Z,102957.45
2019-03-22T06:52:17.277Z,102962.92
2019-03-22T06:54:43.057Z,102967.24
2019-03-22T06:57:08.841Z,102973.61
2019-03-22T06:59:34.628Z,102975.03
2019-03-22T07:02:00.403Z,102976.27
2019-03-22T07:04:30.042Z,102963.45
2019-03-22T07:06:55.832Z,102963.45
2019-03-22T07:09:21.642Z,102962.11
2019-03-22T07:11:47.421Z,102958.80
2019-03-22T07:14:13.218Z,102959.53
2019-03-22T07:16:38.999Z,102951.57
2019-03-22T07:19:04.906Z,102955.61
2019-03-22T07:21:30.687Z,102958.30
2019-03-22T07:23:56.594Z,102952.58
2019-03-22T07:26:22.376Z,102955.61
2019-03-22T07:28:48.165Z,102955.16
2019-03-22T07:31:13.965Z,102954.81
2019-03-22T07:33:39.752Z,102954.81
2019-03-22T07:36:05.535Z,102958.09
2019-03-22T07:38:31.337Z,102955.17
2019-03-22T07:40:57.112Z,102944.66
2019-03-22T07:43:22.915Z,102949.30
2019-03-22T07:45:48.696Z,102946.38
2019-03-22T07:48:14.527Z,102947.11
2019-03-22T07:50:40.407Z,102939.84
2019-03-22T07:53:06.192Z,102936.91
2019-03-22T07:55:31.985Z,102931.92
2019-03-22T07:57:57.767Z,102933.99
2019-03-22T08:00:30.767Z,102930.88
2019-03-22T08:02:51.260Z,102942.04
2019-03-22T08:05:17.075Z,102936.66
2019-03-22T08:07:42.853Z,102938.70
2019-03-22T08:10:08.790Z,102940.19
2019-03-22T08:12:34.562Z,102942.63
2019-03-22T08:15:00.428Z,102939.03
2019-03-22T08:17:26.383Z,102943.77
2019-03-22T08:19:52.239Z,102933.23
2019-03-22T08:22:18.089Z,102933.34
2019-03-22T08:24:43.852Z,102930.53
2019-03-22T08:27:09.640Z,102933.80
2019-03-22T08:29:35.438Z,102941.08
2019-03-22T08:32:01.226Z,102937.27
2019-03-22T08:34:27.040Z,102938.75
2019-03-22T08:36:52.810Z,102930.42
2019-03-22T08:39:18.726Z,102918.27
2019-03-22T08:41:44.515Z,102915.58
2019-03-22T08:44:10.287Z,102921.37
2019-03-22T08:46:36.102Z,102920.38
2019-03-22T08:49:01.983Z,102918.97
2019-03-22T08:51:29.877Z,102909.57
2019-03-22T08:53:55.901Z,102907.64
2019-03-22T08:56:21.901Z,102902.30
2019-03-22T08:58:47.704Z,102893.92
2019-03-22T09:01:13.481Z,102900.14
2019-03-22T09:03:39.270Z,102906.00
2019-03-22T09:06:07.783Z,102904.03
2019-03-22T09:08:32.753Z,102897.70
2019-03-22T09:10:58.560Z,102891.12
2019-03-22T09:13:24.341Z,102899.05
2019-03-22T09:15:50.170Z,102898.95
2019-03-22T09:18:15.988Z,102900.95
2019-03-22T09:20:41.839Z,102890.27
2019-03-22T09:23:07.637Z,102886.00
2019-03-22T09:25:33.417Z,102879.73
2019-03-22T09:27:59.218Z,102885.73
2019-03-22T09:30:25.061Z,102885.73
2019-03-22T09:32:50.804Z,102889.36
2019-03-22T09:35:16.622Z,102901.97
2019-03-22T09:37:42.394Z,102896.53
2019-03-22T09:40:08.782Z,102887.45
2019-03-22T09:42:35.089Z,102880.05
2019-03-22T09:45:00.927Z,102867.08
2019-03-22T09:47:26.746Z,102867.08
2019-03-22T09:49:52.516Z,102875.38
2019-03-22T09:52:18.293Z,102866.25
2019-03-22T09:54:44.106Z,102865.20
2019-03-22T09:57:09.886Z,102856.31
2019-03-22T09:59:35.665Z,102854.54
2019-03-22T10:02:01.459Z,102847.05
2019-03-22T10:04:27.241Z,102841.04
2019-03-22T10:06:53.054Z,102846.07
2019-03-22T10:09:18.926Z,102847.30
2019-03-22T10:11:44.730Z,102840.05
2019-03-22T10:14:10.511Z,102841.95
2019-03-22T10:16:36.423Z,102838.20
2019-03-22T10:19:02.156Z,102837.02
2019-03-22T10:21:28.000Z,102830.64
2019-03-22T10:23:53.806Z,102827.64
2019-03-22T10:26:19.675Z,102824.17
2019-03-22T10:28:45.434Z,102825.24
2019-03-22T10:31:11.263Z,102822.47
2019-03-22T10:33:37.011Z,102818.22
2019-03-22T10:36:02.909Z,102813.54
2019-03-22T10:38:31.716Z,102812.31
2019-03-22T10:40:56.533Z,102813.47
2019-03-22T10:43:22.391Z,102805.20
2019-03-22T10:45:48.157Z,102803.66
2019-03-22T10:48:13.997Z,102801.88
2019-03-22T10:50:39.825Z,102793.09
2019-03-22T10:53:05.641Z,102791.70
2019-03-22T10:55:31.418Z,102794.43
2019-03-22T10:57:57.216Z,102793.33
2019-03-22T11:00:22.997Z,102792.64
2019-03-22T11:02:48.886Z,102794.52
2019-03-22T11:05:14.759Z,102785.58
2019-03-22T11:07:40.587Z,102781.10
2019-03-22T11:10:11.109Z,102772.69
2019-03-22T11:12:36.816Z,102786.13
2019-03-22T11:15:08.396Z,102785.10
2019-03-22T11:17:34.408Z,102780.95
2019-03-22T11:20:00.323Z,102775.84
2019-03-22T11:22:26.155Z,102775.84
2019-03-22T11:24:51.956Z,102778.50
2019-03-22T11:27:17.775Z,102779.69
2019-03-22T11:29:43.557Z,102777.88
2019-03-22T11:32:12.857Z,102775.97
2019-03-22T11:34:37.049Z,102777.48
2019-03-22T11:37:02.940Z,102769.16
2019-03-22T11:39:28.721Z,102768.05
2019-03-22T11:41:54.522Z,102769.86
2019-03-22T11:44:20.306Z,102765.45
2019-03-22T11:46:46.097Z,102761.53
2019-03-22T11:49:11.891Z,102761.16
2019-03-22T11:51:37.669Z,102770.86
2019-03-22T11:54:03.761Z,102756.94
2019-03-22T11:56:29.553Z,102756.34
2019-03-22T11:58:55.348Z,102753.94
2019-03-22T12:01:22.490Z,102747.66
2019-03-22T12:03:48.543Z,102741.73
2019-03-22T12:06:14.331Z,102735.37
2019-03-22T12:08:40.134Z,102731.02
2019-03-22T12:11:05.930Z,102732.67
2019-03-22T12:13:31.727Z,102729.72
2019-03-22T12:15:57.501Z,102735.64
2019-03-22T12:18:23.295Z,102733.82
2019-03-22T12:20:49.091Z,102729.53
2019-03-22T12:23:14.895Z,102728.02
2019-03-22T12:25:40.682Z,102728.71
2019-03-22T12:28:06.496Z,102729.41
2019-03-22T12:30:32.276Z,102727.77
2019-03-22T12:32:58.095Z,102727.11
2019-03-22T12:35:23.878Z,102719.64
2019-03-22T12:37:49.675Z,102712.56
2019-03-22T12:40:18.275Z,102709.06
2019-03-22T12:42:44.058Z,102704.08
2019-03-22T12:45:18.382Z,102702.27
2019-03-22T12:47:44.170Z,102692.98
2019-03-22T12:50:10.073Z,102687.56
2019-03-22T12:52:35.853Z,102684.86
2019-03-22T12:55:04.250Z,102679.30
2019-03-22T12:57:30.030Z,102671.75
2019-03-22T12:59:55.829Z,102675.89
2019-03-22T13:02:21.620Z,102674.55
2019-03-22T13:04:47.465Z,102667.98
2019-03-22T13:07:13.245Z,102665.13
2019-03-22T13:09:39.038Z,102656.98
2019-03-22T13:12:06.384Z,102657.31
2019-03-22T13:14:32.309Z,102647.16
2019-03-22T13:16:58.102Z,102641.06
2019-03-22T13:19:23.958Z,102641.56
2019-03-22T13:21:49.738Z,102641.55
2019-03-22T13:24:15.530Z,102640.05
2019-03-22T13:26:41.323Z,102635.29
2019-03-22T13:29:07.245Z,102640.88
2019-03-22T13:31:33.123Z,102631.03
2019-03-22T13:33:58.901Z,102635.80
2019-03-22T13:36:24.996Z,102628.36
2019-03-22T13:38:50.781Z,102634.88
2019-03-22T13:41:16.571Z,102624.22
2019-03-22T13:43:42.462Z,102617.15
2019-03-22T13:46:08.859Z,102613.58
2019-03-22T13:48:34.648Z,102609.30
2019-03-22T13:51:02.378Z,102610.43
2019-03-22T13:53:28.157Z,102608.73
2019-03-22T13:55:53.957Z,102598.21
2019-03-22T13:58:19.739Z,102601.95
2019-03-22T14:00:45.533Z,102594.38
2019-03-22T14:03:11.321Z,102593.02
2019-03-22T14:05:37.132Z,102585.48
2019-03-22T14:08:02.913Z,102580.72
2019-03-22T14:10:33.275Z,102583.44
2019-03-22T14:13:00.266Z,102575.64
2019-03-22T14:15:26.053Z,102564.97
2019-03-22T14:17:51.839Z,102560.36
2019-03-22T14:20:17.644Z,102548.86
2019-03-22T14:22:43.439Z,102547.04
2019-03-22T14:25:09.241Z,102542.14
2019-03-22T14:27:35.030Z,102539.30
2019-03-22T14:30:00.809Z,102534.87
2019-03-22T14:32:26.601Z,102532.30
2019-03-22T14:34:52.392Z,102529.24
2019-03-22T14:37:18.204Z,102529.92
2019-03-22T14:39:43.990Z,102521.56
2019-03-22T14:42:10.129Z,102515.61
2019-03-22T14:44:35.887Z,102506.35
2019-03-22T14:47:01.680Z,102510.11
2019-03-22T14:49:27.474Z,102503.31
2019-03-22T14:51:53.277Z,102497.42
2019-03-22T14:54:19.062Z,102498.47
2019-03-22T14:56:44.854Z,102488.83
2019-03-22T14:59:10.653Z,102485.30
2019-03-22T15:01:36.592Z,102478.42
2019-03-22T15:04:02.556Z,102475.23
2019-03-22T15:06:28.346Z,102472.94
2019-03-22T15:08:54.137Z,102467.96
2019-03-22T15:11:20.050Z,102468.33
2019-03-22T15:13:56.789Z,102460.99
2019-03-22T15:16:27.047Z,102465.94
2019-03-22T15:19:11.250Z,102455.97
2019-03-22T15:21:54.095Z,102454.97
2019-03-22T15:24:30.626Z,102451.70
2019-03-22T15:27:14.776Z,102436.50
2019-03-22T15:29:59.088Z,102439.02
2019-03-22T15:32:43.486Z,102432.42
2019-03-22T15:35:23.406Z,102432.78
2019-03-22T15:38:07.898Z,102428.02
2019-03-22T15:40:34.021Z,102427.54
2019-03-22T15:42:59.813Z,102423.82
2019-03-22T15:45:25.617Z,102423.34
2019-03-22T15:47:51.409Z,102420.80
2019-03-22T15:50:17.513Z,102423.51
2019-03-22T15:52:43.413Z,102424.17
2019-03-22T15:55:09.199Z,102415.36
2019-03-22T15:57:35.093Z,102409.29
2019-03-22T16:00:00.898Z,102410.59
2019-03-22T16:02:26.705Z,102407.55
2019-03-22T16:04:52.488Z,102407.27
2019-03-22T16:07:18.386Z,102408.31
2019-03-22T16:09:44.172Z,102404.92
2019-03-22T16:12:09.965Z,102405.61
2019-03-22T16:14:35.755Z,102401.92
2019-03-22T16:17:01.551Z,102407.71
2019-03-22T16:19:27.397Z,102395.35
2019-03-22T16:21:53.175Z,102388.37
2019-03-22T16:24:18.990Z,102384.84
2019-03-22T16:26:44.768Z,102383.84
2019-03-22T16:29:10.562Z,102378.95
2019-03-22T16:31:36.367Z,102374.53
2019-03-22T16:34:02.171Z,102368.92
2019-03-22T16:36:27.951Z,102372.19
2019-03-22T16:38:53.742Z,102377.28
2019-03-22T16:41:19.524Z,102377.98
2019-03-22T16:43:45.327Z,102372.91
2019-03-22T16:46:11.118Z,102372.59
2019-03-22T16:48:37.017Z,102369.59
2019-03-22T16:51:02.802Z,102372.31
2019-03-22T16:53:28.616Z,102369.33
2019-03-22T16:55:54.401Z,102364.27
2019-03-22T16:58:20.208Z,102369.55
2019-03-22T17:00:45.991Z,102370.77
2019-03-22T17:03:11.788Z,102370.67
2019-03-22T17:05:37.575Z,102360.17
2019-03-22T17:08:03.401Z,102359.16
2019-03-22T17:10:29.181Z,102363.27
2019-03-22T17:12:54.960Z,102359.73
2019-03-22T17:15:20.748Z,102364.82
2019-03-22T17:17:46.538Z,102366.22
2019-03-22T17:20:12.461Z,102358.95
2019-03-22T17:22:38.243Z,102365.23
2019-03-22T17:25:05.540Z,102364.92
2019-03-22T17:27:31.328Z,102366.14
2019-03-22T17:29:57.133Z,102366.95
2019-03-22T17:32:23.044Z,102364.92
2019-03-22T17:34:48.827Z,102358.51
2019-03-22T17:37:14.611Z,102353.09
2019-03-22T17:39:40.399Z,102347.66
2019-03-22T17:42:06.210Z,102345.64
2019-03-22T17:44:31.968Z,102344.45
2019-03-22T17:46:57.750Z,102351.86
2019-03-22T17:49:23.551Z,102342.21
2019-03-22T17:51:49.354Z,102334.92
2019-03-22T17:54:15.155Z,102333.73
2019-03-22T17:56:40.954Z,102331.54
2019-03-22T17:59:06.761Z,102331.54
2019-03-22T18:01:32.541Z,102331.20
2019-03-22T18:03:58.416Z,102329.50
2019-03-22T18:06:24.199Z,102332.72
2019-03-22T18:08:50.003Z,102322.91
2019-03-22T18:11:15.793Z,102327.95
2019-03-22T18:13:41.580Z,102331.33
2019-03-22T18:16:07.390Z,102327.57
2019-03-22T18:18:33.175Z,102323.18
2019-03-22T18:20:59.005Z,102323.52
2019-03-22T18:23:24.785Z,102319.45
2019-03-22T18:25:50.590Z,102314.71
2019-03-22T18:28:16.369Z,102317.73
2019-03-22T18:30:42.179Z,102317.76
2019-03-22T18:33:07.963Z,102314.88
2019-03-22T18:35:33.762Z,102313.19
2019-03-22T18:37:59.565Z,102306.95
2019-03-22T18:40:25.360Z,102306.95
2019-03-22T18:42:51.156Z,102303.01
2019-03-22T18:45:16.965Z,102305.89
2019-03-22T18:47:42.747Z,102312.97
2019-03-22T18:50:09.567Z,102314.32
2019-03-22T18:52:35.356Z,102313.95
2019-03-22T18:55:01.141Z,102315.61
2019-03-22T18:57:26.937Z,102325.91
2019-03-22T18:59:52.733Z,102319.58
2019-03-22T19:02:18.539Z,102313.83
2019-03-22T19:04:44.573Z,102316.67
2019-03-22T19:07:10.429Z,102318.09
2019-03-22T19:09:36.208Z,102311.27
2019-03-22T19:12:02.313Z,102311.22
2019-03-22T19:14:28.115Z,102310.66
2019-03-22T19:16:53.909Z,102307.70
2019-03-22T19:19:19.703Z,102310.41
2019-03-22T19:21:45.512Z,102310.57
2019-03-22T19:24:11.303Z,102314.09
2019-03-22T19:26:37.102Z,102318.45
2019-03-22T19:29:02.883Z,102316.09
2019-03-22T19:31:28.689Z,102315.75
2019-03-22T19:33:54.476Z,102315.69
2019-03-22T19:36:20.328Z,102307.25
2019-03-22T19:38:46.146Z,102308.72
2019-03-22T19:41:11.928Z,102304.28
2019-03-22T19:43:37.729Z,102303.75
2019-03-22T19:46:03.516Z,102305.00
2019-03-22T19:48:29.310Z,102302.17
2019-03-22T19:50:55.107Z,102291.40
2019-03-22T19:53:20.920Z,102297.66
2019-03-22T19:55:46.707Z,102297.66
2019-03-22T19:58:12.503Z,102300.66
2019-03-22T20:00:38.305Z,102298.61
2019-03-22T20:03:04.104Z,102295.90
2019-03-22T20:05:31.399Z,102293.84
2019-03-22T20:07:57.302Z,102293.87
2019-03-22T20:10:23.120Z,102287.87
2019-03-22T20:12:48.927Z,102279.47
2019-03-22T20:15:14.714Z,102287.23
2019-03-22T20:17:40.512Z,102280.34
2019-03-22T20:20:07.417Z,102279.83
2019-03-22T20:22:33.222Z,102266.00
2019-03-22T20:24:59.017Z,102266.00
2019-03-22T20:27:24.914Z,102281.28
2019-03-22T20:29:50.709Z,102270.48
2019-03-22T20:32:16.505Z,102269.66
2019-03-22T20:34:42.300Z,102263.09
2019-03-22T20:37:08.093Z,102267.30
2019-03-22T20:39:33.901Z,102262.39
2019-03-22T20:41:59.680Z,102257.13
2019-03-22T20:44:33.545Z,102257.95
2019-03-22T20:46:53.177Z,102253.59
2019-03-22T20:49:18.973Z,102253.59
2019-03-22T20:51:44.770Z,102243.76
2019-03-22T20:54:10.573Z,102243.76
2019-03-22T20:56:36.477Z,102249.81
2019-03-22T20:59:02.242Z,102249.14
2019-03-22T21:01:28.025Z,102243.58
2019-03-22T21:03:53.820Z,102237.71
2019-03-22T21:06:19.618Z,102239.76
2019-03-22T21:08:45.400Z,102240.45
2019-03-22T21:11:11.202Z,102241.80
2019-03-22T21:13:37.207Z,102235.89
2019-03-22T21:16:03.109Z,102239.11
2019-03-22T21:18:28.895Z,102234.41
2019-03-22T21:20:54.714Z,102228.70
2019-03-22T21:23:20.487Z,102232.41
2019-03-22T21:25:46.293Z,102229.87
2019-03-22T21:28:12.078Z,102226.70
2019-03-22T21:30:37.877Z,102228.36
2019-03-22T21:33:03.667Z,102224.66
2019-03-22T21:35:36.848Z,102218.25
2019-03-22T21:37:57.147Z,102226.17
2019-03-22T21:40:22.948Z,102216.87
2019-03-22T21:42:49.136Z,102211.30
2019-03-22T21:45:14.941Z,102201.33
2019-03-22T21:47:40.718Z,102201.33
2019-03-22T21:50:08.012Z,102207.42
2019-03-22T21:52:33.801Z,102202.81
2019-03-22T21:54:59.599Z,102191.68
2019-03-22T21:57:25.378Z,102189.53
2019-03-22T21:59:51.180Z,102186.18
2019-03-22T22:02:16.968Z,102185.83
2019-03-22T22:04:42.753Z,102167.30
2019-03-22T22:07:08.745Z,102178.36
2019-03-22T22:09:34.530Z,102174.31
2019-03-22T22:12:00.326Z,102177.33
2019-03-22T22:14:26.115Z,102169.88
2019-03-22T22:16:51.911Z,102168.09
2019-03-22T22:19:17.709Z,102163.52
2019-03-22T22:21:43.513Z,102154.25
2019-03-22T22:24:09.296Z,102158.47
2019-03-22T22:26:35.093Z,102157.09
2019-03-22T22:29:00.877Z,102152.04
2019-03-22T22:31:26.675Z,102148.86
2019-03-22T22:33:52.463Z,102146.30
2019-03-22T22:36:18.261Z,102138.66
2019-03-22T22:38:44.053Z,102140.38
2019-03-22T22:41:09.987Z,102136.51
2019-03-22T22:43:35.777Z,102151.34
2019-03-22T22:46:01.582Z,102143.29
2019-03-22T22:48:27.374Z,102135.51
2019-03-22T22:50:53.169Z,102133.67
2019-03-22T22:53:18.965Z,102134.33
2019-03-22T22:55:44.770Z,102122.16
2019-03-22T22:58:10.565Z,102122.16
2019-03-22T23:00:36.651Z,102136.51
2019-03-22T23:03:02.466Z,102128.77
2019-03-22T23:05:28.249Z,102128.77
2019-03-22T23:07:54.084Z,102123.33
2019-03-22T23:10:19.976Z,102122.30
2019-03-22T23:12:45.774Z,102114.51
2019-03-22T23:15:11.751Z,102117.47
2019-03-22T23:17:37.549Z,102116.61
2019-03-22T23:20:04.345Z,102121.17
2019-03-22T23:22:30.152Z,102114.87
2019-03-22T23:24:55.935Z,102114.87
2019-03-22T23:27:21.732Z,102113.34
2019-03-22T23:29:47.523Z,102099.66
2019-03-22T23:32:13.326Z,102100.52
2019-03-22T23:34:39.124Z,102102.22
2019-03-22T23:37:07.113Z,102100.52
2019-03-22T23:39:32.611Z,102093.73
2019-03-22T23:41:58.402Z,102090.39
2019-03-22T23:44:24.200Z,102100.78
2019-03-22T23:46:49.982Z,102099.78
2019-03-22T23:49:15.978Z,102102.78
2019-03-22T23:51:41.779Z,102106.16
2019-03-22T23:54:07.574Z,102094.99
2019-03-22T23:56:33.732Z,102101.69
2019-03-22T23:58:59.549Z,102093.50
